KCUB/CUB METAR and TAF weather

Enter ICAO airport designator
Station Type Date Time Source
KCUB METAR 2021/08/04 18:53 UTC NOAA

KCUB 041853Z AUTO VRB04KT 10SM SCT041 BKN049 OVC070 27/18 A3003 RMK AO2 SLP167 T02670183


Station Type Date Time Source
KCUB Decoded METAR 2021/08/04 18:53 UTC NOAA

OWENS DOWNTOWN AIRPORT, SC, United States (KCUB) 33-58N 081-00W 56M
Aug 04, 2021 - 02:53 PM EDT / 2021.08.04 1853 UTC
Wind: Variable at 5 MPH (4 KT):0
Visibility: 10 mile(s):0
Sky conditions: overcast
Temperature: 80.1 F (26.7 C)
Dew Point: 64.9 F (18.3 C)
Relative Humidity: 60%
Pressure (altimeter): 30.03 in. Hg (1016 hPa)
ob: KCUB 041853Z AUTO VRB04KT 10SM SCT041 BKN049 OVC070 27/18 A3003 RMK AO2 SLP167 T02670183
cycle: 19

Station Type Date Time Source
KCUB TAF 2021/08/04 18:36 UTC NOAA

TAF KCUB 041733Z 0418/0518 03005KT P6SM BKN028 OVC035
FM042200 05005KT P6SM SCT030 BKN050
FM051000 06003KT 4SM BR SCT015 BKN030
TEMPO 0511/0514 BKN015 OVC025
FM051600 06005KT P6SM BKN050

Example: see airport list